sensor_id;sensor_type;location;lat;lon;timestamp;P1;durP1;ratioP1;P2;durP2;ratioP2
18695;SDS011;22617;43.690;27.956;2023-07-13T00:01:48;14.13;;;9.32;;
18695;SDS011;22617;43.690;27.956;2023-07-13T00:06:55;11.57;;;8.70;;
18695;SDS011;22617;43.690;27.956;2023-07-13T00:12:25;15.43;;;10.13;;
18695;SDS011;22617;43.690;27.956;2023-07-13T00:17:39;16.45;;;10.32;;
18695;SDS011;22617;43.690;27.956;2023-07-13T00:22:52;14.13;;;10.13;;
18695;SDS011;22617;43.690;27.956;2023-07-13T00:27:57;14.00;;;10.32;;
18695;SDS011;22617;43.690;27.956;2023-07-13T00:33:04;17.20;;;10.25;;
18695;SDS011;22617;43.690;27.956;2023-07-13T00:38:19;15.30;;;10.60;;
18695;SDS011;22617;43.690;27.956;2023-07-13T00:43:33;13.55;;;10.43;;
18695;SDS011;22617;43.690;27.956;2023-07-13T00:48:39;14.98;;;10.85;;
18695;SDS011;22617;43.690;27.956;2023-07-13T00:53:52;13.30;;;10.50;;
18695;SDS011;22617;43.690;27.956;2023-07-13T00:59:05;15.13;;;10.85;;
18695;SDS011;22617;43.690;27.956;2023-07-13T01:04:16;16.75;;;11.07;;
18695;SDS011;22617;43.690;27.956;2023-07-13T01:09:21;14.52;;;11.27;;
18695;SDS011;22617;43.690;27.956;2023-07-13T01:14:33;15.20;;;11.88;;
18695;SDS011;22617;43.690;27.956;2023-07-13T01:19:42;16.35;;;11.50;;
18695;SDS011;22617;43.690;27.956;2023-07-13T01:24:57;14.93;;;11.45;;
18695;SDS011;22617;43.690;27.956;2023-07-13T01:30:05;15.20;;;10.88;;
18695;SDS011;22617;43.690;27.956;2023-07-13T01:35:12;17.73;;;11.57;;
18695;SDS011;22617;43.690;27.956;2023-07-13T01:40:33;16.88;;;11.52;;
18695;SDS011;22617;43.690;27.956;2023-07-13T01:45:41;15.73;;;11.43;;
18695;SDS011;22617;43.690;27.956;2023-07-13T01:51:01;12.70;;;10.55;;
18695;SDS011;22617;43.690;27.956;2023-07-13T01:56:10;13.45;;;10.93;;
18695;SDS011;22617;43.690;27.956;2023-07-13T02:01:19;16.55;;;11.10;;
18695;SDS011;22617;43.690;27.956;2023-07-13T02:06:23;18.00;;;11.57;;
18695;SDS011;22617;43.690;27.956;2023-07-13T02:11:42;14.02;;;11.60;;
18695;SDS011;22617;43.690;27.956;2023-07-13T02:16:53;17.77;;;11.82;;
18695;SDS011;22617;43.690;27.956;2023-07-13T02:22:03;14.55;;;12.27;;
18695;SDS011;22617;43.690;27.956;2023-07-13T02:27:09;21.58;;;13.85;;
18695;SDS011;22617;43.690;27.956;2023-07-13T02:32:15;17.13;;;12.60;;
18695;SDS011;22617;43.690;27.956;2023-07-13T02:37:20;14.30;;;11.63;;
18695;SDS011;22617;43.690;27.956;2023-07-13T02:42:33;15.65;;;12.48;;
18695;SDS011;22617;43.690;27.956;2023-07-13T02:47:50;15.40;;;12.85;;
18695;SDS011;22617;43.690;27.956;2023-07-13T02:52:58;18.85;;;13.20;;
18695;SDS011;22617;43.690;27.956;2023-07-13T02:58:16;16.55;;;12.52;;
18695;SDS011;22617;43.690;27.956;2023-07-13T03:03:23;17.42;;;13.60;;
18695;SDS011;22617;43.690;27.956;2023-07-13T03:08:31;14.60;;;12.60;;
18695;SDS011;22617;43.690;27.956;2023-07-13T03:13:38;16.80;;;12.60;;
18695;SDS011;22617;43.690;27.956;2023-07-13T03:18:46;15.82;;;12.38;;
18695;SDS011;22617;43.690;27.956;2023-07-13T03:23:55;16.63;;;12.73;;
18695;SDS011;22617;43.690;27.956;2023-07-13T03:29:04;19.67;;;13.38;;
18695;SDS011;22617;43.690;27.956;2023-07-13T03:34:19;16.65;;;12.27;;
18695;SDS011;22617;43.690;27.956;2023-07-13T03:39:27;17.60;;;12.27;;
18695;SDS011;22617;43.690;27.956;2023-07-13T03:44:40;15.05;;;12.38;;
18695;SDS011;22617;43.690;27.956;2023-07-13T03:49:53;16.92;;;13.93;;
18695;SDS011;22617;43.690;27.956;2023-07-13T03:55:01;16.73;;;13.73;;
18695;SDS011;22617;43.690;27.956;2023-07-13T04:00:15;20.58;;;14.52;;
18695;SDS011;22617;43.690;27.956;2023-07-13T04:05:34;20.10;;;13.90;;
18695;SDS011;22617;43.690;27.956;2023-07-13T04:10:48;19.50;;;14.48;;
18695;SDS011;22617;43.690;27.956;2023-07-13T04:16:21;19.70;;;15.07;;
18695;SDS011;22617;43.690;27.956;2023-07-13T04:21:32;21.70;;;16.02;;
18695;SDS011;22617;43.690;27.956;2023-07-13T04:26:42;19.75;;;16.80;;
18695;SDS011;22617;43.690;27.956;2023-07-13T04:31:48;20.63;;;16.15;;
18695;SDS011;22617;43.690;27.956;2023-07-13T04:36:54;22.52;;;16.55;;
18695;SDS011;22617;43.690;27.956;2023-07-13T04:42:07;21.35;;;16.40;;
18695;SDS011;22617;43.690;27.956;2023-07-13T04:47:15;18.52;;;14.45;;
18695;SDS011;22617;43.690;27.956;2023-07-13T04:52:24;25.20;;;14.05;;
18695;SDS011;22617;43.690;27.956;2023-07-13T04:57:29;23.17;;;14.63;;
18695;SDS011;22617;43.690;27.956;2023-07-13T05:02:39;22.38;;;14.07;;
18695;SDS011;22617;43.690;27.956;2023-07-13T05:07:50;21.88;;;14.23;;
18695;SDS011;22617;43.690;27.956;2023-07-13T05:12:57;26.50;;;14.55;;
18695;SDS011;22617;43.690;27.956;2023-07-13T05:18:04;21.30;;;15.68;;
18695;SDS011;22617;43.690;27.956;2023-07-13T05:23:18;21.35;;;14.20;;
18695;SDS011;22617;43.690;27.956;2023-07-13T05:28:31;31.20;;;15.50;;
18695;SDS011;22617;43.690;27.956;2023-07-13T05:33:38;20.63;;;16.25;;
18695;SDS011;22617;43.690;27.956;2023-07-13T05:38:43;20.10;;;14.85;;
18695;SDS011;22617;43.690;27.956;2023-07-13T05:43:51;20.85;;;15.15;;
18695;SDS011;22617;43.690;27.956;2023-07-13T05:48:59;17.90;;;13.32;;
18695;SDS011;22617;43.690;27.956;2023-07-13T05:54:09;18.67;;;14.82;;
18695;SDS011;22617;43.690;27.956;2023-07-13T05:59:18;21.83;;;15.50;;
18695;SDS011;22617;43.690;27.956;2023-07-13T06:04:31;25.33;;;15.57;;
18695;SDS011;22617;43.690;27.956;2023-07-13T06:09:40;20.88;;;15.45;;
18695;SDS011;22617;43.690;27.956;2023-07-13T06:14:50;21.00;;;14.80;;
18695;SDS011;22617;43.690;27.956;2023-07-13T06:19:57;19.73;;;14.50;;
18695;SDS011;22617;43.690;27.956;2023-07-13T06:25:06;17.23;;;12.80;;
18695;SDS011;22617;43.690;27.956;2023-07-13T06:30:12;17.40;;;13.15;;
18695;SDS011;22617;43.690;27.956;2023-07-13T06:35:24;19.40;;;13.25;;
18695;SDS011;22617;43.690;27.956;2023-07-13T06:40:32;15.88;;;11.90;;
18695;SDS011;22617;43.690;27.956;2023-07-13T06:45:40;18.08;;;12.00;;
18695;SDS011;22617;43.690;27.956;2023-07-13T06:51:01;18.88;;;13.30;;
18695;SDS011;22617;43.690;27.956;2023-07-13T06:56:08;17.10;;;12.23;;
18695;SDS011;22617;43.690;27.956;2023-07-13T07:01:14;19.80;;;11.93;;
18695;SDS011;22617;43.690;27.956;2023-07-13T07:06:29;15.75;;;12.35;;
18695;SDS011;22617;43.690;27.956;2023-07-13T07:11:41;16.92;;;11.52;;
18695;SDS011;22617;43.690;27.956;2023-07-13T07:17:03;15.18;;;10.70;;
18695;SDS011;22617;43.690;27.956;2023-07-13T07:22:10;12.63;;;10.02;;
18695;SDS011;22617;43.690;27.956;2023-07-13T07:27:18;14.57;;;11.38;;
18695;SDS011;22617;43.690;27.956;2023-07-13T07:32:28;15.75;;;10.93;;
18695;SDS011;22617;43.690;27.956;2023-07-13T07:37:38;15.07;;;11.43;;
18695;SDS011;22617;43.690;27.956;2023-07-13T07:42:45;17.65;;;11.68;;
18695;SDS011;22617;43.690;27.956;2023-07-13T07:47:50;19.65;;;11.02;;
18695;SDS011;22617;43.690;27.956;2023-07-13T07:53:01;15.63;;;10.75;;
18695;SDS011;22617;43.690;27.956;2023-07-13T07:58:10;16.83;;;10.90;;
18695;SDS011;22617;43.690;27.956;2023-07-13T08:03:25;15.32;;;10.35;;
18695;SDS011;22617;43.690;27.956;2023-07-13T08:08:53;13.13;;;9.77;;
18695;SDS011;22617;43.690;27.956;2023-07-13T08:14:03;15.50;;;8.90;;
18695;SDS011;22617;43.690;27.956;2023-07-13T08:19:28;11.38;;;8.35;;
18695;SDS011;22617;43.690;27.956;2023-07-13T08:24:43;15.25;;;8.50;;
18695;SDS011;22617;43.690;27.956;2023-07-13T08:29:51;14.35;;;5.88;;
18695;SDS011;22617;43.690;27.956;2023-07-13T08:35:07;10.63;;;6.30;;
18695;SDS011;22617;43.690;27.956;2023-07-13T08:40:14;20.48;;;7.60;;
18695;SDS011;22617;43.690;27.956;2023-07-13T08:51:44;11.13;;;7.53;;
18695;SDS011;22617;43.690;27.956;2023-07-13T08:57:24;14.25;;;6.78;;
18695;SDS011;22617;43.690;27.956;2023-07-13T09:02:55;10.07;;;6.63;;
18695;SDS011;22617;43.690;27.956;2023-07-13T09:08:53;15.07;;;7.53;;
18695;SDS011;22617;43.690;27.956;2023-07-13T09:14:06;16.90;;;8.80;;
18695;SDS011;22617;43.690;27.956;2023-07-13T09:19:26;13.48;;;7.38;;
18695;SDS011;22617;43.690;27.956;2023-07-13T09:24:36;10.80;;;7.82;;
18695;SDS011;22617;43.690;27.956;2023-07-13T09:29:45;21.13;;;8.02;;
18695;SDS011;22617;43.690;27.956;2023-07-13T09:34:53;11.07;;;6.22;;
18695;SDS011;22617;43.690;27.956;2023-07-13T09:39:57;10.07;;;6.97;;
18695;SDS011;22617;43.690;27.956;2023-07-13T09:45:04;11.40;;;6.75;;
18695;SDS011;22617;43.690;27.956;2023-07-13T09:50:10;17.67;;;7.75;;
18695;SDS011;22617;43.690;27.956;2023-07-13T09:55:25;13.65;;;7.72;;
18695;SDS011;22617;43.690;27.956;2023-07-13T10:00:33;11.90;;;7.88;;
18695;SDS011;22617;43.690;27.956;2023-07-13T10:05:37;11.55;;;7.75;;
18695;SDS011;22617;43.690;27.956;2023-07-13T10:10:44;12.88;;;7.75;;
18695;SDS011;22617;43.690;27.956;2023-07-13T10:15:49;14.75;;;7.43;;
18695;SDS011;22617;43.690;27.956;2023-07-13T10:20:54;10.88;;;6.88;;
18695;SDS011;22617;43.690;27.956;2023-07-13T10:26:24;13.40;;;7.72;;
18695;SDS011;22617;43.690;27.956;2023-07-13T10:31:31;14.82;;;8.18;;
18695;SDS011;22617;43.690;27.956;2023-07-13T10:36:40;11.88;;;8.40;;
18695;SDS011;22617;43.690;27.956;2023-07-13T10:41:47;10.52;;;7.65;;
18695;SDS011;22617;43.690;27.956;2023-07-13T10:46:57;18.08;;;8.68;;
18695;SDS011;22617;43.690;27.956;2023-07-13T10:52:03;13.95;;;8.13;;
18695;SDS011;22617;43.690;27.956;2023-07-13T10:57:13;12.57;;;8.40;;
18695;SDS011;22617;43.690;27.956;2023-07-13T11:02:24;13.68;;;8.32;;
18695;SDS011;22617;43.690;27.956;2023-07-13T11:07:31;14.48;;;8.00;;
18695;SDS011;22617;43.690;27.956;2023-07-13T11:12:55;11.60;;;8.60;;
18695;SDS011;22617;43.690;27.956;2023-07-13T11:18:03;12.27;;;7.70;;
18695;SDS011;22617;43.690;27.956;2023-07-13T11:23:09;14.60;;;8.50;;
18695;SDS011;22617;43.690;27.956;2023-07-13T11:28:22;16.77;;;8.07;;
18695;SDS011;22617;43.690;27.956;2023-07-13T11:33:31;12.10;;;8.02;;
18695;SDS011;22617;43.690;27.956;2023-07-13T11:38:56;15.98;;;8.07;;
18695;SDS011;22617;43.690;27.956;2023-07-13T11:44:09;14.77;;;8.07;;
18695;SDS011;22617;43.690;27.956;2023-07-13T11:49:17;20.02;;;8.80;;
18695;SDS011;22617;43.690;27.956;2023-07-13T11:54:26;12.95;;;8.20;;
18695;SDS011;22617;43.690;27.956;2023-07-13T11:59:32;14.43;;;8.13;;
18695;SDS011;22617;43.690;27.956;2023-07-13T12:04:42;12.05;;;7.38;;
18695;SDS011;22617;43.690;27.956;2023-07-13T12:09:47;11.25;;;7.28;;
18695;SDS011;22617;43.690;27.956;2023-07-13T12:14:52;11.57;;;7.45;;
18695;SDS011;22617;43.690;27.956;2023-07-13T12:19:58;10.40;;;6.47;;
18695;SDS011;22617;43.690;27.956;2023-07-13T12:25:02;20.17;;;7.85;;
18695;SDS011;22617;43.690;27.956;2023-07-13T12:30:20;13.68;;;6.63;;
18695;SDS011;22617;43.690;27.956;2023-07-13T12:35:29;10.52;;;6.60;;
18695;SDS011;22617;43.690;27.956;2023-07-13T12:40:37;9.10;;;6.40;;
18695;SDS011;22617;43.690;27.956;2023-07-13T12:45:54;8.55;;;6.10;;
18695;SDS011;22617;43.690;27.956;2023-07-13T12:51:00;8.38;;;5.63;;
18695;SDS011;22617;43.690;27.956;2023-07-13T12:56:04;17.08;;;6.32;;
18695;SDS011;22617;43.690;27.956;2023-07-13T13:01:09;8.18;;;5.63;;
18695;SDS011;22617;43.690;27.956;2023-07-13T13:06:22;7.72;;;5.75;;
18695;SDS011;22617;43.690;27.956;2023-07-13T13:11:29;10.38;;;5.75;;
18695;SDS011;22617;43.690;27.956;2023-07-13T13:16:34;9.65;;;5.65;;
18695;SDS011;22617;43.690;27.956;2023-07-13T13:21:42;10.70;;;5.32;;
18695;SDS011;22617;43.690;27.956;2023-07-13T13:26:47;13.10;;;5.80;;
18695;SDS011;22617;43.690;27.956;2023-07-13T13:31:51;10.35;;;5.88;;
18695;SDS011;22617;43.690;27.956;2023-07-13T13:36:57;10.93;;;6.15;;
18695;SDS011;22617;43.690;27.956;2023-07-13T13:42:01;12.27;;;6.32;;
18695;SDS011;22617;43.690;27.956;2023-07-13T13:47:07;9.82;;;6.38;;
18695;SDS011;22617;43.690;27.956;2023-07-13T13:52:30;15.50;;;7.28;;
18695;SDS011;22617;43.690;27.956;2023-07-13T13:57:34;12.63;;;6.40;;
18695;SDS011;22617;43.690;27.956;2023-07-13T14:02:37;12.77;;;6.35;;
18695;SDS011;22617;43.690;27.956;2023-07-13T14:07:42;20.90;;;6.65;;
18695;SDS011;22617;43.690;27.956;2023-07-13T14:12:46;12.27;;;6.55;;
18695;SDS011;22617;43.690;27.956;2023-07-13T14:17:51;17.27;;;7.00;;
18695;SDS011;22617;43.690;27.956;2023-07-13T14:22:56;16.13;;;7.28;;
18695;SDS011;22617;43.690;27.956;2023-07-13T14:28:00;15.63;;;7.30;;
18695;SDS011;22617;43.690;27.956;2023-07-13T14:33:13;12.77;;;7.30;;
18695;SDS011;22617;43.690;27.956;2023-07-13T14:38:19;28.92;;;8.60;;
18695;SDS011;22617;43.690;27.956;2023-07-13T14:43:23;13.07;;;7.53;;
18695;SDS011;22617;43.690;27.956;2023-07-13T14:48:30;16.02;;;7.22;;
18695;SDS011;22617;43.690;27.956;2023-07-13T14:53:35;14.85;;;8.70;;
18695;SDS011;22617;43.690;27.956;2023-07-13T14:58:40;21.90;;;9.77;;
18695;SDS011;22617;43.690;27.956;2023-07-13T15:03:44;13.95;;;9.93;;
18695;SDS011;22617;43.690;27.956;2023-07-13T15:08:50;23.77;;;10.77;;
18695;SDS011;22617;43.690;27.956;2023-07-13T15:13:54;13.25;;;10.05;;
18695;SDS011;22617;43.690;27.956;2023-07-13T15:18:57;21.50;;;10.60;;
18695;SDS011;22617;43.690;27.956;2023-07-13T15:24:03;14.45;;;9.23;;
18695;SDS011;22617;43.690;27.956;2023-07-13T15:29:08;15.95;;;9.10;;
18695;SDS011;22617;43.690;27.956;2023-07-13T15:34:12;13.43;;;9.65;;
18695;SDS011;22617;43.690;27.956;2023-07-13T15:39:19;13.93;;;9.20;;
18695;SDS011;22617;43.690;27.956;2023-07-13T15:44:25;18.00;;;9.40;;
18695;SDS011;22617;43.690;27.956;2023-07-13T15:49:30;20.70;;;9.80;;
18695;SDS011;22617;43.690;27.956;2023-07-13T15:54:36;17.88;;;9.60;;
18695;SDS011;22617;43.690;27.956;2023-07-13T15:59:41;14.95;;;10.05;;
18695;SDS011;22617;43.690;27.956;2023-07-13T16:04:45;19.45;;;9.75;;
18695;SDS011;22617;43.690;27.956;2023-07-13T16:09:50;12.63;;;8.98;;
18695;SDS011;22617;43.690;27.956;2023-07-13T16:14:54;19.08;;;9.65;;
18695;SDS011;22617;43.690;27.956;2023-07-13T16:19:58;16.17;;;9.40;;
18695;SDS011;22617;43.690;27.956;2023-07-13T16:25:11;18.95;;;9.73;;
18695;SDS011;22617;43.690;27.956;2023-07-13T16:30:17;13.63;;;9.38;;
18695;SDS011;22617;43.690;27.956;2023-07-13T16:35:24;13.80;;;8.98;;
18695;SDS011;22617;43.690;27.956;2023-07-13T16:40:31;14.20;;;8.65;;
18695;SDS011;22617;43.690;27.956;2023-07-13T16:45:36;15.38;;;8.38;;
18695;SDS011;22617;43.690;27.956;2023-07-13T16:50:45;16.75;;;9.00;;
18695;SDS011;22617;43.690;27.956;2023-07-13T16:55:56;13.70;;;8.98;;
18695;SDS011;22617;43.690;27.956;2023-07-13T17:01:09;13.82;;;8.30;;
18695;SDS011;22617;43.690;27.956;2023-07-13T17:06:19;13.57;;;9.05;;
18695;SDS011;22617;43.690;27.956;2023-07-13T17:11:29;15.00;;;8.95;;
18695;SDS011;22617;43.690;27.956;2023-07-13T17:16:34;16.02;;;8.70;;
18695;SDS011;22617;43.690;27.956;2023-07-13T17:21:37;18.45;;;8.98;;
18695;SDS011;22617;43.690;27.956;2023-07-13T17:26:43;15.40;;;8.77;;
18695;SDS011;22617;43.690;27.956;2023-07-13T17:31:46;15.50;;;8.98;;
18695;SDS011;22617;43.690;27.956;2023-07-13T17:36:51;11.88;;;8.75;;
18695;SDS011;22617;43.690;27.956;2023-07-13T17:41:57;13.55;;;8.68;;
18695;SDS011;22617;43.690;27.956;2023-07-13T17:47:00;15.77;;;9.82;;
18695;SDS011;22617;43.690;27.956;2023-07-13T17:52:07;20.27;;;9.73;;
18695;SDS011;22617;43.690;27.956;2023-07-13T17:57:13;12.25;;;9.07;;
18695;SDS011;22617;43.690;27.956;2023-07-13T18:02:17;15.25;;;9.85;;
18695;SDS011;22617;43.690;27.956;2023-07-13T18:07:23;17.73;;;9.90;;
18695;SDS011;22617;43.690;27.956;2023-07-13T18:12:31;18.52;;;10.02;;
18695;SDS011;22617;43.690;27.956;2023-07-13T18:17:36;17.92;;;9.82;;
18695;SDS011;22617;43.690;27.956;2023-07-13T18:22:40;19.88;;;10.43;;
18695;SDS011;22617;43.690;27.956;2023-07-13T18:27:45;18.05;;;10.70;;
18695;SDS011;22617;43.690;27.956;2023-07-13T18:32:49;16.63;;;10.73;;
18695;SDS011;22617;43.690;27.956;2023-07-13T18:37:56;15.70;;;11.15;;
18695;SDS011;22617;43.690;27.956;2023-07-13T18:43:02;18.05;;;11.15;;
18695;SDS011;22617;43.690;27.956;2023-07-13T18:48:07;16.52;;;10.80;;
18695;SDS011;22617;43.690;27.956;2023-07-13T18:53:15;21.55;;;11.55;;
18695;SDS011;22617;43.690;27.956;2023-07-13T18:58:20;17.77;;;11.90;;
18695;SDS011;22617;43.690;27.956;2023-07-13T19:03:24;18.40;;;11.30;;
18695;SDS011;22617;43.690;27.956;2023-07-13T19:08:36;18.02;;;11.98;;
18695;SDS011;22617;43.690;27.956;2023-07-13T19:13:43;17.35;;;11.77;;
18695;SDS011;22617;43.690;27.956;2023-07-13T19:18:48;19.13;;;11.73;;
18695;SDS011;22617;43.690;27.956;2023-07-13T19:23:52;17.60;;;11.25;;
18695;SDS011;22617;43.690;27.956;2023-07-13T19:28:58;19.92;;;13.07;;
18695;SDS011;22617;43.690;27.956;2023-07-13T19:34:13;19.40;;;13.77;;
18695;SDS011;22617;43.690;27.956;2023-07-13T19:39:23;17.58;;;12.93;;
18695;SDS011;22617;43.690;27.956;2023-07-13T19:44:31;18.92;;;13.35;;
18695;SDS011;22617;43.690;27.956;2023-07-13T19:49:35;18.92;;;13.50;;
18695;SDS011;22617;43.690;27.956;2023-07-13T19:54:40;18.88;;;14.00;;
18695;SDS011;22617;43.690;27.956;2023-07-13T19:59:45;20.45;;;13.82;;
18695;SDS011;22617;43.690;27.956;2023-07-13T20:04:54;20.55;;;14.25;;
18695;SDS011;22617;43.690;27.956;2023-07-13T20:10:15;23.88;;;14.32;;
18695;SDS011;22617;43.690;27.956;2023-07-13T20:15:24;19.10;;;14.68;;
18695;SDS011;22617;43.690;27.956;2023-07-13T20:20:30;19.15;;;14.38;;
18695;SDS011;22617;43.690;27.956;2023-07-13T20:25:35;21.42;;;14.88;;
18695;SDS011;22617;43.690;27.956;2023-07-13T20:30:41;19.38;;;14.50;;
18695;SDS011;22617;43.690;27.956;2023-07-13T20:35:48;20.58;;;15.40;;
18695;SDS011;22617;43.690;27.956;2023-07-13T20:40:52;20.08;;;14.88;;
18695;SDS011;22617;43.690;27.956;2023-07-13T20:45:58;19.38;;;14.68;;
18695;SDS011;22617;43.690;27.956;2023-07-13T20:51:03;21.30;;;14.77;;
18695;SDS011;22617;43.690;27.956;2023-07-13T20:56:09;18.92;;;14.60;;
18695;SDS011;22617;43.690;27.956;2023-07-13T21:01:18;21.52;;;15.40;;
18695;SDS011;22617;43.690;27.956;2023-07-13T21:06:25;21.08;;;14.68;;
18695;SDS011;22617;43.690;27.956;2023-07-13T21:11:31;22.70;;;14.65;;
18695;SDS011;22617;43.690;27.956;2023-07-13T21:16:36;20.85;;;13.77;;
18695;SDS011;22617;43.690;27.956;2023-07-13T21:21:40;20.15;;;14.05;;
18695;SDS011;22617;43.690;27.956;2023-07-13T21:26:43;21.80;;;14.35;;
18695;SDS011;22617;43.690;27.956;2023-07-13T21:31:48;20.73;;;14.18;;
18695;SDS011;22617;43.690;27.956;2023-07-13T21:36:53;20.85;;;14.13;;
18695;SDS011;22617;43.690;27.956;2023-07-13T21:42:00;18.15;;;13.82;;
18695;SDS011;22617;43.690;27.956;2023-07-13T21:47:06;18.92;;;13.65;;
18695;SDS011;22617;43.690;27.956;2023-07-13T21:52:16;20.17;;;15.02;;
18695;SDS011;22617;43.690;27.956;2023-07-13T21:57:20;20.23;;;14.55;;
18695;SDS011;22617;43.690;27.956;2023-07-13T22:02:25;20.98;;;15.02;;
18695;SDS011;22617;43.690;27.956;2023-07-13T22:07:30;22.38;;;14.13;;
18695;SDS011;22617;43.690;27.956;2023-07-13T22:12:35;20.85;;;14.13;;
18695;SDS011;22617;43.690;27.956;2023-07-13T22:17:44;18.75;;;13.20;;
18695;SDS011;22617;43.690;27.956;2023-07-13T22:28:22;17.73;;;14.07;;
18695;SDS011;22617;43.690;27.956;2023-07-13T22:33:31;20.48;;;14.55;;
18695;SDS011;22617;43.690;27.956;2023-07-13T22:38:34;23.23;;;14.30;;
18695;SDS011;22617;43.690;27.956;2023-07-13T22:43:38;18.52;;;14.20;;
18695;SDS011;22617;43.690;27.956;2023-07-13T22:48:49;22.63;;;14.95;;
18695;SDS011;22617;43.690;27.956;2023-07-13T22:53:57;22.30;;;14.77;;
18695;SDS011;22617;43.690;27.956;2023-07-13T22:59:01;24.92;;;14.95;;
18695;SDS011;22617;43.690;27.956;2023-07-13T23:04:09;21.27;;;15.15;;
18695;SDS011;22617;43.690;27.956;2023-07-13T23:09:19;22.70;;;15.00;;
18695;SDS011;22617;43.690;27.956;2023-07-13T23:14:24;19.40;;;15.40;;
18695;SDS011;22617;43.690;27.956;2023-07-13T23:19:31;19.83;;;15.07;;
18695;SDS011;22617;43.690;27.956;2023-07-13T23:24:35;19.98;;;14.77;;
18695;SDS011;22617;43.690;27.956;2023-07-13T23:29:39;20.83;;;15.40;;
18695;SDS011;22617;43.690;27.956;2023-07-13T23:34:44;24.33;;;15.98;;
18695;SDS011;22617;43.690;27.956;2023-07-13T23:39:48;19.67;;;15.88;;
18695;SDS011;22617;43.690;27.956;2023-07-13T23:44:51;23.42;;;16.40;;
18695;SDS011;22617;43.690;27.956;2023-07-13T23:49:56;21.67;;;14.93;;
18695;SDS011;22617;43.690;27.956;2023-07-13T23:55:00;21.65;;;15.68;;
